sensor_id;sensor_type;location;lat;lon;timestamp;pressure;altitude;pressure_sealevel;temperature;humidity
47240;BME280;32978;53.586;10.052;2024-01-25T00:04:51;101804.81;;;6.11;100.00
47240;BME280;32978;53.586;10.052;2024-01-25T00:09:48;101786.28;;;6.03;100.00
47240;BME280;32978;53.586;10.052;2024-01-25T00:14:44;101779.75;;;5.99;100.00
47240;BME280;32978;53.586;10.052;2024-01-25T00:19:41;101774.34;;;5.99;100.00
47240;BME280;32978;53.586;10.052;2024-01-25T00:24:37;101777.50;;;5.91;100.00
47240;BME280;32978;53.586;10.052;2024-01-25T00:29:34;101802.47;;;5.93;100.00
47240;BME280;32978;53.586;10.052;2024-01-25T00:34:32;101810.69;;;5.98;100.00
47240;BME280;32978;53.586;10.052;2024-01-25T00:39:29;101816.66;;;5.95;100.00
47240;BME280;32978;53.586;10.052;2024-01-25T00:44:26;101816.06;;;5.93;100.00
47240;BME280;32978;53.586;10.052;2024-01-25T00:49:24;101819.94;;;5.97;100.00
47240;BME280;32978;53.586;10.052;2024-01-25T00:54:21;101822.06;;;5.95;100.00
47240;BME280;32978;53.586;10.052;2024-01-25T00:59:18;101809.31;;;5.96;100.00
47240;BME280;32978;53.586;10.052;2024-01-25T01:04:15;101821.06;;;6.01;100.00
47240;BME280;32978;53.586;10.052;2024-01-25T01:09:12;101800.13;;;5.97;100.00
47240;BME280;32978;53.586;10.052;2024-01-25T01:14:09;101830.25;;;6.00;100.00
47240;BME280;32978;53.586;10.052;2024-01-25T01:19:05;101822.06;;;5.95;100.00
47240;BME280;32978;53.586;10.052;2024-01-25T01:24:03;101828.00;;;5.92;100.00
47240;BME280;32978;53.586;10.052;2024-01-25T01:29:00;101839.88;;;5.86;100.00
47240;BME280;32978;53.586;10.052;2024-01-25T01:33:56;101830.56;;;5.77;100.00
47240;BME280;32978;53.586;10.052;2024-01-25T01:38:54;101821.91;;;5.80;100.00
47240;BME280;32978;53.586;10.052;2024-01-25T01:43:54;101839.81;;;5.76;100.00
47240;BME280;32978;53.586;10.052;2024-01-25T01:48:51;101835.28;;;5.86;100.00
47240;BME280;32978;53.586;10.052;2024-01-25T01:53:48;101866.63;;;5.99;100.00
47240;BME280;32978;53.586;10.052;2024-01-25T01:58:47;101861.50;;;6.03;100.00
47240;BME280;32978;53.586;10.052;2024-01-25T02:03:44;101869.38;;;6.04;100.00
47240;BME280;32978;53.586;10.052;2024-01-25T02:08:41;101868.56;;;6.04;100.00
47240;BME280;32978;53.586;10.052;2024-01-25T02:13:38;101894.38;;;6.06;100.00
47240;BME280;32978;53.586;10.052;2024-01-25T02:18:34;101881.88;;;6.05;100.00
47240;BME280;32978;53.586;10.052;2024-01-25T02:23:31;101886.50;;;6.05;100.00
47240;BME280;32978;53.586;10.052;2024-01-25T02:28:28;101894.38;;;6.06;100.00
47240;BME280;32978;53.586;10.052;2024-01-25T02:33:24;101885.97;;;6.08;100.00
47240;BME280;32978;53.586;10.052;2024-01-25T02:38:21;101877.56;;;6.09;100.00
47240;BME280;32978;53.586;10.052;2024-01-25T02:43:17;101912.31;;;6.07;100.00
47240;BME280;32978;53.586;10.052;2024-01-25T02:48:14;101881.94;;;6.10;100.00
47240;BME280;32978;53.586;10.052;2024-01-25T02:53:11;101907.47;;;6.15;100.00
47240;BME280;32978;53.586;10.052;2024-01-25T02:58:08;101907.47;;;6.15;100.00
47240;BME280;32978;53.586;10.052;2024-01-25T03:03:04;101909.13;;;6.16;100.00
47240;BME280;32978;53.586;10.052;2024-01-25T03:08:01;101912.09;;;6.14;100.00
47240;BME280;32978;53.586;10.052;2024-01-25T03:12:57;101928.38;;;6.14;100.00
47240;BME280;32978;53.586;10.052;2024-01-25T03:17:54;101929.72;;;6.11;100.00
47240;BME280;32978;53.586;10.052;2024-01-25T03:22:50;101953.59;;;6.09;100.00
47240;BME280;32978;53.586;10.052;2024-01-25T03:27:47;101940.03;;;6.09;100.00
47240;BME280;32978;53.586;10.052;2024-01-25T03:32:46;101946.84;;;6.12;100.00
47240;BME280;32978;53.586;10.052;2024-01-25T03:37:42;101950.31;;;6.07;100.00
47240;BME280;32978;53.586;10.052;2024-01-25T03:42:39;101952.22;;;6.07;100.00
47240;BME280;32978;53.586;10.052;2024-01-25T03:47:36;101965.28;;;6.10;100.00
47240;BME280;32978;53.586;10.052;2024-01-25T03:52:33;101974.19;;;6.05;100.00
47240;BME280;32978;53.586;10.052;2024-01-25T03:57:29;101987.28;;;6.08;100.00
47240;BME280;32978;53.586;10.052;2024-01-25T04:02:26;102002.47;;;6.09;100.00
47240;BME280;32978;53.586;10.052;2024-01-25T04:07:23;102009.03;;;6.14;100.00
47240;BME280;32978;53.586;10.052;2024-01-25T04:12:20;102014.47;;;6.14;100.00
47240;BME280;32978;53.586;10.052;2024-01-25T04:17:16;102007.72;;;6.16;100.00
47240;BME280;32978;53.586;10.052;2024-01-25T04:22:13;102025.00;;;6.10;100.00
47240;BME280;32978;53.586;10.052;2024-01-25T04:27:10;102022.06;;;6.11;100.00
47240;BME280;32978;53.586;10.052;2024-01-25T04:32:06;102018.78;;;6.09;100.00
47240;BME280;32978;53.586;10.052;2024-01-25T04:37:03;102048.06;;;6.07;100.00
47240;BME280;32978;53.586;10.052;2024-01-25T04:41:59;102044.31;;;6.08;100.00
47240;BME280;32978;53.586;10.052;2024-01-25T04:46:56;102066.50;;;6.05;100.00
47240;BME280;32978;53.586;10.052;2024-01-25T04:51:53;102050.50;;;6.04;100.00
47240;BME280;32978;53.586;10.052;2024-01-25T04:56:49;102050.75;;;6.02;100.00
47240;BME280;32978;53.586;10.052;2024-01-25T05:01:46;102057.78;;;6.03;100.00
47240;BME280;32978;53.586;10.052;2024-01-25T05:06:43;102042.03;;;6.00;100.00
47240;BME280;32978;53.586;10.052;2024-01-25T05:11:39;102059.81;;;5.91;100.00
47240;BME280;32978;53.586;10.052;2024-01-25T05:16:36;102069.03;;;5.90;100.00
47240;BME280;32978;53.586;10.052;2024-01-25T05:21:33;102063.97;;;5.77;100.00
47240;BME280;32978;53.586;10.052;2024-01-25T05:26:29;102089.41;;;5.70;100.00
47240;BME280;32978;53.586;10.052;2024-01-25T05:31:26;102070.41;;;5.70;100.00
47240;BME280;32978;53.586;10.052;2024-01-25T05:36:23;102072.53;;;5.68;100.00
47240;BME280;32978;53.586;10.052;2024-01-25T05:41:19;102081.88;;;5.78;100.00
47240;BME280;32978;53.586;10.052;2024-01-25T05:46:16;102078.63;;;5.76;100.00
47240;BME280;32978;53.586;10.052;2024-01-25T05:51:12;102091.00;;;5.66;100.00
47240;BME280;32978;53.586;10.052;2024-01-25T05:56:10;102086.06;;;5.63;100.00
47240;BME280;32978;53.586;10.052;2024-01-25T06:01:07;102094.25;;;5.68;100.00
47240;BME280;32978;53.586;10.052;2024-01-25T06:06:03;102118.78;;;5.74;100.00
47240;BME280;32978;53.586;10.052;2024-01-25T06:11:00;102109.53;;;5.75;100.00
47240;BME280;32978;53.586;10.052;2024-01-25T06:15:57;102103.59;;;5.78;100.00
47240;BME280;32978;53.586;10.052;2024-01-25T06:20:54;102122.13;;;5.81;100.00
47240;BME280;32978;53.586;10.052;2024-01-25T06:25:50;102135.69;;;5.81;100.00
47240;BME280;32978;53.586;10.052;2024-01-25T06:30:46;102146.03;;;5.84;100.00
47240;BME280;32978;53.586;10.052;2024-01-25T06:35:43;102158.03;;;5.88;100.00
47240;BME280;32978;53.586;10.052;2024-01-25T06:40:40;102168.09;;;5.87;100.00
47240;BME280;32978;53.586;10.052;2024-01-25T06:45:37;102162.84;;;5.81;100.00
47240;BME280;32978;53.586;10.052;2024-01-25T06:50:36;102171.03;;;5.86;100.00
47240;BME280;32978;53.586;10.052;2024-01-25T06:55:32;102184.03;;;5.84;100.00
47240;BME280;32978;53.586;10.052;2024-01-25T07:00:29;102181.84;;;5.81;100.00
47240;BME280;32978;53.586;10.052;2024-01-25T07:05:27;102199.50;;;5.83;100.00
47240;BME280;32978;53.586;10.052;2024-01-25T07:10:26;102217.59;;;5.78;100.00
47240;BME280;32978;53.586;10.052;2024-01-25T07:15:23;102234.72;;;5.78;100.00
47240;BME280;32978;53.586;10.052;2024-01-25T07:20:19;102234.31;;;5.69;100.00
47240;BME280;32978;53.586;10.052;2024-01-25T07:25:19;102237.84;;;5.70;100.00
47240;BME280;32978;53.586;10.052;2024-01-25T07:30:16;102236.88;;;5.76;100.00
47240;BME280;32978;53.586;10.052;2024-01-25T07:35:12;102241.94;;;5.73;100.00
47240;BME280;32978;53.586;10.052;2024-01-25T07:40:10;102230.03;;;5.74;100.00
47240;BME280;32978;53.586;10.052;2024-01-25T07:45:07;102241.94;;;5.73;100.00
47240;BME280;32978;53.586;10.052;2024-01-25T07:50:04;102240.91;;;5.74;100.00
47240;BME280;32978;53.586;10.052;2024-01-25T07:55:01;102236.06;;;5.76;100.00
47240;BME280;32978;53.586;10.052;2024-01-25T08:00:00;102261.03;;;5.78;100.00
47240;BME280;32978;53.586;10.052;2024-01-25T08:04:56;102254.09;;;5.87;100.00
47240;BME280;32978;53.586;10.052;2024-01-25T08:09:54;102251.31;;;5.82;100.00
47240;BME280;32978;53.586;10.052;2024-01-25T08:14:54;102269.59;;;5.86;100.00
47240;BME280;32978;53.586;10.052;2024-01-25T08:19:51;102267.13;;;5.85;100.00
47240;BME280;32978;53.586;10.052;2024-01-25T08:24:48;102279.63;;;5.86;100.00
47240;BME280;32978;53.586;10.052;2024-01-25T08:29:45;102277.50;;;5.88;100.00
47240;BME280;32978;53.586;10.052;2024-01-25T08:34:41;102286.22;;;5.90;100.00
47240;BME280;32978;53.586;10.052;2024-01-25T08:39:38;102280.28;;;5.93;100.00
47240;BME280;32978;53.586;10.052;2024-01-25T08:44:34;102290.66;;;5.96;100.00
47240;BME280;32978;53.586;10.052;2024-01-25T08:49:31;102290.19;;;5.99;100.00
47240;BME280;32978;53.586;10.052;2024-01-25T08:54:28;102288.13;;;6.06;100.00
47240;BME280;32978;53.586;10.052;2024-01-25T08:59:24;102294.88;;;6.04;100.00
47240;BME280;32978;53.586;10.052;2024-01-25T09:04:21;102305.28;;;6.12;100.00
47240;BME280;32978;53.586;10.052;2024-01-25T09:09:21;102294.59;;;6.05;100.00
47240;BME280;32978;53.586;10.052;2024-01-25T09:14:17;102308.44;;;6.04;100.00
47240;BME280;32978;53.586;10.052;2024-01-25T09:19:14;102329.31;;;6.03;100.00
47240;BME280;32978;53.586;10.052;2024-01-25T09:24:12;102327.38;;;5.99;100.00
47240;BME280;32978;53.586;10.052;2024-01-25T09:29:08;102338.56;;;6.02;100.00
47240;BME280;32978;53.586;10.052;2024-01-25T09:34:05;102341.03;;;6.04;100.00
47240;BME280;32978;53.586;10.052;2024-01-25T09:39:03;102351.56;;;6.00;100.00
47240;BME280;32978;53.586;10.052;2024-01-25T09:44:00;102354.91;;;6.07;100.00
47240;BME280;32978;53.586;10.052;2024-01-25T09:48:57;102365.19;;;6.05;100.00
47240;BME280;32978;53.586;10.052;2024-01-25T09:53:54;102375.09;;;6.11;100.00
47240;BME280;32978;53.586;10.052;2024-01-25T09:58:52;102381.34;;;6.12;100.00
47240;BME280;32978;53.586;10.052;2024-01-25T10:03:49;102377.72;;;6.06;100.00
47240;BME280;32978;53.586;10.052;2024-01-25T10:08:46;102398.78;;;6.16;100.00
47240;BME280;32978;53.586;10.052;2024-01-25T10:13:49;102400.75;;;6.21;100.00
47240;BME280;32978;53.586;10.052;2024-01-25T10:18:50;102400.38;;;6.29;100.00
47240;BME280;32978;53.586;10.052;2024-01-25T10:23:49;102407.94;;;6.27;100.00
47240;BME280;32978;53.586;10.052;2024-01-25T10:28:52;102407.34;;;6.25;100.00
47240;BME280;32978;53.586;10.052;2024-01-25T10:33:57;102430.66;;;6.21;100.00
47240;BME280;32978;53.586;10.052;2024-01-25T10:38:54;102422.00;;;6.24;100.00
47240;BME280;32978;53.586;10.052;2024-01-25T10:43:52;102412.44;;;6.38;100.00
47240;BME280;32978;53.586;10.052;2024-01-25T10:48:50;102412.44;;;6.38;100.00
47240;BME280;32978;53.586;10.052;2024-01-25T10:53:47;102409.97;;;6.53;100.00
47240;BME280;32978;53.586;10.052;2024-01-25T10:58:45;102422.00;;;6.41;100.00
47240;BME280;32978;53.586;10.052;2024-01-25T11:03:42;102415.31;;;6.48;100.00
47240;BME280;32978;53.586;10.052;2024-01-25T11:08:39;102420.84;;;6.53;100.00
47240;BME280;32978;53.586;10.052;2024-01-25T11:13:42;102416.38;;;6.64;100.00
47240;BME280;32978;53.586;10.052;2024-01-25T11:18:53;102434.00;;;6.62;100.00
47240;BME280;32978;53.586;10.052;2024-01-25T11:23:59;102428.25;;;6.58;100.00
47240;BME280;32978;53.586;10.052;2024-01-25T11:28:56;102436.16;;;6.60;100.00
47240;BME280;32978;53.586;10.052;2024-01-25T11:33:57;102425.41;;;6.70;100.00
47240;BME280;32978;53.586;10.052;2024-01-25T11:38:54;102431.28;;;6.62;100.00
47240;BME280;32978;53.586;10.052;2024-01-25T11:43:50;102429.34;;;6.79;100.00
47240;BME280;32978;53.586;10.052;2024-01-25T11:48:47;102430.84;;;6.70;100.00
47240;BME280;32978;53.586;10.052;2024-01-25T11:53:44;102425.28;;;6.60;100.00
47240;BME280;32978;53.586;10.052;2024-01-25T11:58:40;102430.72;;;6.60;100.00
47240;BME280;32978;53.586;10.052;2024-01-25T12:03:38;102431.63;;;6.48;100.00
47240;BME280;32978;53.586;10.052;2024-01-25T12:08:35;102421.91;;;6.52;100.00
47240;BME280;32978;53.586;10.052;2024-01-25T12:13:38;102425.41;;;6.70;100.00
47240;BME280;32978;53.586;10.052;2024-01-25T12:18:34;102430.72;;;6.60;100.00
47240;BME280;32978;53.586;10.052;2024-01-25T12:23:36;102429.31;;;6.57;100.00
47240;BME280;32978;53.586;10.052;2024-01-25T12:28:34;102431.53;;;6.60;100.00
47240;BME280;32978;53.586;10.052;2024-01-25T12:33:31;102450.38;;;6.67;100.00
47240;BME280;32978;53.586;10.052;2024-01-25T12:38:29;102445.03;;;6.72;100.00
47240;BME280;32978;53.586;10.052;2024-01-25T12:43:28;102467.69;;;6.61;100.00
47240;BME280;32978;53.586;10.052;2024-01-25T12:48:26;102462.19;;;6.56;100.00
47240;BME280;32978;53.586;10.052;2024-01-25T12:53:23;102457.72;;;6.49;100.00
47240;BME280;32978;53.586;10.052;2024-01-25T12:58:19;102461.00;;;6.51;100.00
47240;BME280;32978;53.586;10.052;2024-01-25T13:03:16;102447.34;;;6.63;100.00
47240;BME280;32978;53.586;10.052;2024-01-25T13:08:13;102461.66;;;6.59;100.00
47240;BME280;32978;53.586;10.052;2024-01-25T13:13:09;102453.50;;;6.59;100.00
47240;BME280;32978;53.586;10.052;2024-01-25T13:18:06;102457.81;;;6.55;100.00
47240;BME280;32978;53.586;10.052;2024-01-25T13:23:03;102459.22;;;6.57;100.00
47240;BME280;32978;53.586;10.052;2024-01-25T13:27:59;102455.25;;;6.65;100.00
47240;BME280;32978;53.586;10.052;2024-01-25T13:32:56;102457.72;;;6.66;100.00
47240;BME280;32978;53.586;10.052;2024-01-25T13:37:52;102454.91;;;6.61;100.00
47240;BME280;32978;53.586;10.052;2024-01-25T13:42:49;102466.63;;;6.62;100.00
47240;BME280;32978;53.586;10.052;2024-01-25T13:47:46;102466.69;;;6.67;100.00
47240;BME280;32978;53.586;10.052;2024-01-25T13:52:43;102459.19;;;6.74;100.00
47240;BME280;32978;53.586;10.052;2024-01-25T13:57:39;102460.94;;;6.80;100.00
47240;BME280;32978;53.586;10.052;2024-01-25T14:02:36;102475.28;;;6.98;100.00
47240;BME280;32978;53.586;10.052;2024-01-25T14:07:32;102472.97;;;7.28;100.00
47240;BME280;32978;53.586;10.052;2024-01-25T14:12:31;102467.13;;;7.36;100.00
47240;BME280;32978;53.586;10.052;2024-01-25T14:17:27;102465.47;;;7.57;100.00
47240;BME280;32978;53.586;10.052;2024-01-25T14:22:24;102471.09;;;7.73;100.00
47240;BME280;32978;53.586;10.052;2024-01-25T14:27:27;102467.47;;;7.67;100.00
47240;BME280;32978;53.586;10.052;2024-01-25T14:32:25;102468.94;;;7.53;100.00
47240;BME280;32978;53.586;10.052;2024-01-25T14:37:21;102466.28;;;7.36;100.00
47240;BME280;32978;53.586;10.052;2024-01-25T14:42:18;102466.16;;;7.26;100.00
47240;BME280;32978;53.586;10.052;2024-01-25T14:47:14;102465.84;;;7.22;100.00
47240;BME280;32978;53.586;10.052;2024-01-25T14:52:16;102464.34;;;7.31;100.00
47240;BME280;32978;53.586;10.052;2024-01-25T14:57:14;102466.75;;;7.50;100.00
47240;BME280;32978;53.586;10.052;2024-01-25T15:02:10;102470.41;;;7.38;100.00
47240;BME280;32978;53.586;10.052;2024-01-25T15:07:07;102482.00;;;7.12;100.00
47240;BME280;32978;53.586;10.052;2024-01-25T15:12:04;102486.63;;;6.89;100.00
47240;BME280;32978;53.586;10.052;2024-01-25T15:17:01;102490.91;;;6.85;100.00
47240;BME280;32978;53.586;10.052;2024-01-25T15:21:58;102486.38;;;6.74;100.00
47240;BME280;32978;53.586;10.052;2024-01-25T15:26:55;102495.09;;;6.76;100.00
47240;BME280;32978;53.586;10.052;2024-01-25T15:31:51;102492.47;;;6.81;100.00
47240;BME280;32978;53.586;10.052;2024-01-25T15:36:48;102505.41;;;6.74;100.00
47240;BME280;32978;53.586;10.052;2024-01-25T15:41:44;102491.81;;;6.74;100.00
47240;BME280;32978;53.586;10.052;2024-01-25T15:46:45;102492.66;;;6.58;100.00
47240;BME280;32978;53.586;10.052;2024-01-25T15:51:42;102490.31;;;6.49;100.00
47240;BME280;32978;53.586;10.052;2024-01-25T15:56:38;102497.59;;;6.44;100.00
47240;BME280;32978;53.586;10.052;2024-01-25T16:01:35;102500.88;;;6.29;100.00
47240;BME280;32978;53.586;10.052;2024-01-25T16:06:32;102499.63;;;6.37;100.00
47240;BME280;32978;53.586;10.052;2024-01-25T16:11:29;102493.47;;;6.41;100.00
47240;BME280;32978;53.586;10.052;2024-01-25T16:16:25;102497.50;;;6.39;100.00
47240;BME280;32978;53.586;10.052;2024-01-25T16:21:21;102495.09;;;6.42;100.00
47240;BME280;32978;53.586;10.052;2024-01-25T16:26:18;102496.78;;;6.43;100.00
47240;BME280;32978;53.586;10.052;2024-01-25T16:31:15;102504.16;;;6.31;100.00
47240;BME280;32978;53.586;10.052;2024-01-25T16:36:11;102515.50;;;6.28;100.00
47240;BME280;32978;53.586;10.052;2024-01-25T16:41:08;102515.59;;;6.33;100.00
47240;BME280;32978;53.586;10.052;2024-01-25T16:46:05;102504.56;;;6.23;100.00
47240;BME280;32978;53.586;10.052;2024-01-25T16:51:01;102492.44;;;6.14;100.00
47240;BME280;32978;53.586;10.052;2024-01-25T16:55:58;102495.22;;;6.02;100.00
47240;BME280;32978;53.586;10.052;2024-01-25T17:00:55;102493.25;;;5.97;100.00
47240;BME280;32978;53.586;10.052;2024-01-25T17:05:51;102483.31;;;5.91;100.00
47240;BME280;32978;53.586;10.052;2024-01-25T17:10:48;102488.66;;;5.86;100.00
47240;BME280;32978;53.586;10.052;2024-01-25T17:15:44;102497.63;;;5.86;100.00
47240;BME280;32978;53.586;10.052;2024-01-25T17:20:41;102482.63;;;5.84;100.00
47240;BME280;32978;53.586;10.052;2024-01-25T17:25:37;102488.75;;;5.91;100.00
47240;BME280;32978;53.586;10.052;2024-01-25T17:30:34;102489.31;;;5.93;100.00
47240;BME280;32978;53.586;10.052;2024-01-25T17:35:30;102481.69;;;5.90;100.00
47240;BME280;32978;53.586;10.052;2024-01-25T17:40:27;102483.59;;;5.78;100.00
47240;BME280;32978;53.586;10.052;2024-01-25T17:45:23;102468.28;;;5.72;100.00
47240;BME280;32978;53.586;10.052;2024-01-25T17:50:20;102464.81;;;5.59;100.00
47240;BME280;32978;53.586;10.052;2024-01-25T17:55:17;102454.56;;;5.49;100.00
47240;BME280;32978;53.586;10.052;2024-01-25T18:00:25;102449.44;;;5.36;100.00
47240;BME280;32978;53.586;10.052;2024-01-25T18:05:22;102439.53;;;5.30;100.00
47240;BME280;32978;53.586;10.052;2024-01-25T18:10:19;102448.16;;;5.27;100.00
47240;BME280;32978;53.586;10.052;2024-01-25T18:15:15;102448.16;;;5.27;100.00
47240;BME280;32978;53.586;10.052;2024-01-25T18:20:14;102428.31;;;5.26;100.00
47240;BME280;32978;53.586;10.052;2024-01-25T18:25:10;102433.28;;;5.30;100.00
47240;BME280;32978;53.586;10.052;2024-01-25T18:30:08;102427.38;;;5.33;100.00
47240;BME280;32978;53.586;10.052;2024-01-25T18:35:05;102421.59;;;5.29;100.00
47240;BME280;32978;53.586;10.052;2024-01-25T18:40:02;102420.91;;;5.22;100.00
47240;BME280;32978;53.586;10.052;2024-01-25T18:45:02;102413.97;;;5.14;100.00
47240;BME280;32978;53.586;10.052;2024-01-25T18:49:59;102403.63;;;5.11;100.00
47240;BME280;32978;53.586;10.052;2024-01-25T18:54:58;102419.66;;;5.01;100.00
47240;BME280;32978;53.586;10.052;2024-01-25T18:59:54;102416.75;;;4.91;100.00
47240;BME280;32978;53.586;10.052;2024-01-25T19:04:51;102409.56;;;4.84;100.00
47240;BME280;32978;53.586;10.052;2024-01-25T19:09:48;102400.97;;;4.76;100.00
47240;BME280;32978;53.586;10.052;2024-01-25T19:14:44;102399.44;;;4.68;100.00
47240;BME280;32978;53.586;10.052;2024-01-25T19:19:41;102397.81;;;4.67;100.00
47240;BME280;32978;53.586;10.052;2024-01-25T19:24:38;102397.94;;;4.60;100.00
47240;BME280;32978;53.586;10.052;2024-01-25T19:29:35;102394.03;;;4.68;100.00
47240;BME280;32978;53.586;10.052;2024-01-25T19:34:31;102386.00;;;4.61;100.00
47240;BME280;32978;53.586;10.052;2024-01-25T19:39:28;102380.16;;;4.53;100.00
47240;BME280;32978;53.586;10.052;2024-01-25T19:44:25;102376.13;;;4.67;100.00
47240;BME280;32978;53.586;10.052;2024-01-25T19:49:21;102373.41;;;4.67;100.00
47240;BME280;32978;53.586;10.052;2024-01-25T19:54:18;102375.75;;;4.75;100.00
47240;BME280;32978;53.586;10.052;2024-01-25T19:59:15;102373.16;;;4.80;100.00
47240;BME280;32978;53.586;10.052;2024-01-25T20:04:12;102361.34;;;4.87;100.00
47240;BME280;32978;53.586;10.052;2024-01-25T20:09:08;102370.44;;;4.92;100.00
47240;BME280;32978;53.586;10.052;2024-01-25T20:14:05;102375.13;;;4.97;100.00
47240;BME280;32978;53.586;10.052;2024-01-25T20:19:02;102370.88;;;5.01;100.00
47240;BME280;32978;53.586;10.052;2024-01-25T20:23:59;102375.47;;;5.00;100.00
47240;BME280;32978;53.586;10.052;2024-01-25T20:28:57;102365.66;;;5.11;100.00
47240;BME280;32978;53.586;10.052;2024-01-25T20:33:54;102361.41;;;5.15;100.00
47240;BME280;32978;53.586;10.052;2024-01-25T20:38:50;102357.63;;;5.16;100.00
47240;BME280;32978;53.586;10.052;2024-01-25T20:43:47;102358.13;;;5.13;100.00
47240;BME280;32978;53.586;10.052;2024-01-25T20:48:44;102365.31;;;5.07;100.00
47240;BME280;32978;53.586;10.052;2024-01-25T20:53:40;102355.50;;;5.18;100.00
47240;BME280;32978;53.586;10.052;2024-01-25T20:58:48;102358.31;;;5.23;100.00
47240;BME280;32978;53.586;10.052;2024-01-25T21:03:46;102359.13;;;5.24;100.00
47240;BME280;32978;53.586;10.052;2024-01-25T21:08:43;102348.63;;;5.27;100.00
47240;BME280;32978;53.586;10.052;2024-01-25T21:13:41;102353.84;;;5.17;100.00
47240;BME280;32978;53.586;10.052;2024-01-25T21:18:39;102345.31;;;5.25;100.00
47240;BME280;32978;53.586;10.052;2024-01-25T21:23:35;102345.09;;;5.27;100.00
47240;BME280;32978;53.586;10.052;2024-01-25T21:28:33;102346.50;;;5.30;100.00
47240;BME280;32978;53.586;10.052;2024-01-25T21:33:29;102339.41;;;5.28;100.00
47240;BME280;32978;53.586;10.052;2024-01-25T21:38:26;102331.28;;;5.28;100.00
47240;BME280;32978;53.586;10.052;2024-01-25T21:43:22;102331.53;;;5.27;100.00
47240;BME280;32978;53.586;10.052;2024-01-25T21:48:19;102338.28;;;5.24;100.00
47240;BME280;32978;53.586;10.052;2024-01-25T21:53:16;102340.97;;;5.24;100.00
47240;BME280;32978;53.586;10.052;2024-01-25T21:58:13;102336.59;;;5.23;100.00
47240;BME280;32978;53.586;10.052;2024-01-25T22:03:09;102331.19;;;5.23;100.00
47240;BME280;32978;53.586;10.052;2024-01-25T22:08:06;102332.50;;;5.21;100.00
47240;BME280;32978;53.586;10.052;2024-01-25T22:13:03;102330.50;;;5.16;100.00
47240;BME280;32978;53.586;10.052;2024-01-25T22:17:59;102323.91;;;5.12;100.00
47240;BME280;32978;53.586;10.052;2024-01-25T22:22:56;102321.59;;;5.04;100.00
47240;BME280;32978;53.586;10.052;2024-01-25T22:27:52;102319.03;;;4.97;100.00
47240;BME280;32978;53.586;10.052;2024-01-25T22:32:53;102305.63;;;4.91;100.00
47240;BME280;32978;53.586;10.052;2024-01-25T22:37:49;102313.66;;;4.85;100.00
47240;BME280;32978;53.586;10.052;2024-01-25T22:42:46;102302.81;;;4.85;100.00
47240;BME280;32978;53.586;10.052;2024-01-25T22:47:42;102301.16;;;4.84;100.00
47240;BME280;32978;53.586;10.052;2024-01-25T22:52:39;102301.28;;;4.78;100.00
47240;BME280;32978;53.586;10.052;2024-01-25T22:57:36;102289.63;;;4.77;100.00
47240;BME280;32978;53.586;10.052;2024-01-25T23:02:33;102292.34;;;4.77;100.00
47240;BME280;32978;53.586;10.052;2024-01-25T23:07:30;102291.28;;;4.78;100.00
47240;BME280;32978;53.586;10.052;2024-01-25T23:12:27;102287.50;;;4.79;100.00
47240;BME280;32978;53.586;10.052;2024-01-25T23:17:23;102278.78;;;4.77;100.00
47240;BME280;32978;53.586;10.052;2024-01-25T23:22:20;102273.84;;;4.74;100.00
47240;BME280;32978;53.586;10.052;2024-01-25T23:27:17;102266.31;;;4.76;100.00
47240;BME280;32978;53.586;10.052;2024-01-25T23:32:13;102260.16;;;4.81;100.00
47240;BME280;32978;53.586;10.052;2024-01-25T23:37:10;102254.13;;;4.91;100.00
47240;BME280;32978;53.586;10.052;2024-01-25T23:42:06;102245.50;;;4.94;100.00
47240;BME280;32978;53.586;10.052;2024-01-25T23:47:03;102240.88;;;4.94;100.00
47240;BME280;32978;53.586;10.052;2024-01-25T23:52:00;102243.84;;;4.93;100.00
47240;BME280;32978;53.586;10.052;2024-01-25T23:56:57;102236.78;;;4.92;100.00
